• Join FlightAware (Why Join?)
  • Login
  • US Flag 
02:31AM EDT


 

Airport Tracker/Info


-or-


 

Live Flight TrackerFlight Track Log ✈ N64664 ✈ 15-Jun-2013 ✈ KLZU - KABY

Flight Track Log - Related Links

Times and Time Zones

All times are in EDT time to prevent confusion due to time zone crossing. See the N64664 flight status page for this flight to view local times or setup timezone preferences in your user account.

Time Position Orientation Groundspeed Altitude Reporting Facility
EDT Latitude Longitude Course Direction KTS MPH feet Rate Location/Type
09:34PM 33.1167 -83.9167 180° South 109 125 8,500  Level Atlanta TRACON
09:35PM 33.0833 -83.9167 180° South 109 125 8,500  Level Atlanta TRACON
09:36PM 33.0500 -83.9167 180° South 111 128 8,500  Level Atlanta TRACON
09:36PM 33.0167 -83.9333 203° Southwest 109 125 8,500  Level Atlanta TRACON
09:37PM 32.9833 -83.9333 180° South 109 125 8,500  Level Atlanta TRACON
09:38PM 32.9667 -83.9333 180° South 110 127 8,500  Level Atlanta TRACON
09:39PM 32.9333 -83.9500 203° Southwest 108 124 8,500  Level Atlanta TRACON
09:40PM 32.9000 -83.9500 180° South 114 131 8,500  Level Atlanta TRACON
09:41PM 32.8667 -83.9500 180° South 111 128 8,500  Level Atlanta TRACON
09:42PM 32.8500 -83.9667 220° Southwest 107 123 8,500  Level Atlanta TRACON
09:43PM 32.8167 -83.9667 180° South 111 128 8,500  Level Atlanta TRACON
09:44PM 32.7833 -83.9667 180° South 110 127 8,500  Level Atlanta TRACON
09:45PM 32.7500 -83.9833 203° Southwest 108 124 8,500  Level Atlanta TRACON
09:46PM 32.7167 -83.9833 180° South 109 125 8,500  Level Atlanta TRACON
09:47PM 32.7000 -83.9833 180° South 110 127 8,500  Level Atlanta TRACON
09:48PM 32.6667 -84.0000 203° Southwest 112 129 8,500  Level Atlanta TRACON
09:49PM 32.6333 -84.0000 180° South 109 125 8,500  Level Atlanta TRACON
09:50PM 32.6000 -84.0000 180° South 110 127 8,500  Level Atlanta TRACON
09:51PM 32.5667 -84.0167 203° Southwest 108 124 8,500  Level Atlanta TRACON
09:52PM 32.5500 -84.0167 180° South 109 125 8,500  Level Atlanta TRACON
09:53PM 32.5167 -84.0167 180° South 106 122 8,500  Level Atlanta TRACON
09:54PM 32.4833 -84.0167 180° South 107 123 8,500  Level Atlanta TRACON
09:55PM 32.4500 -84.0333 203° Southwest 105 121 8,500  Level Atlanta TRACON
09:56PM 32.4333 -84.0333 180° South 105 121 8,500  Level Atlanta TRACON
09:57PM 32.4000 -84.0333 180° South 104 120 8,500  Level Atlanta TRACON
09:58PM 32.3667 -84.0500 203° Southwest 110 127 8,500  Level Atlanta TRACON
09:59PM 32.3492 -84.0508 182° South 117 135 8,500  Level Jacksonville Center
10:00PM 32.3219 -84.0578 192° South 112 129 8,500  Level Jacksonville Center
10:01PM 32.2906 -84.0600 183° South 112 129 8,500  Level Jacksonville Center
10:02PM 32.2633 -84.0669 192° South 107 123 8,500  Level Jacksonville Center
10:03PM 32.2342 -84.0714 187° South 112 129 8,500  Level Jacksonville Center
10:04PM 32.2047 -84.0761 188° South 112 129 8,500  Level Jacksonville Center
10:05PM 32.1736 -84.0806 187° South 106 122 8,500  Level Jacksonville Center
10:06PM 32.1442 -84.0850 187° South 106 122 8,500  Level Jacksonville Center
10:07PM 32.1169 -84.0894 188° South 106 122 8,500  Level Jacksonville Center
10:08PM 32.0900 -84.0942 188° South 106 122 8,500 -240 Level Jacksonville Center
10:09PM 32.0564 -84.0986 186° South 106 122 8,100 -480 Descending Jacksonville Center
10:10PM 32.0272 -84.1056 191° South 106 122 7,600 -540 Descending Jacksonville Center
10:11PM 32.0000 -84.1100 188° South 106 122 7,100 -480 Descending Jacksonville Center
10:12PM 31.9706 -84.1169 191° South 106 122 6,700 -420 Descending Jacksonville Center
10:13PM 31.9433 -84.1217 188° South 106 122 6,300 -420 Descending Jacksonville Center
10:14PM 31.9183 -84.1311 198° South 106 122 5,900 -480 Descending Jacksonville Center
10:15PM 31.8889 -84.1381 191° South 106 122 5,400 -540 Descending Jacksonville Center